sensor_id;sensor_type;location;lat;lon;timestamp;P1;durP1;ratioP1;P2;durP2;ratioP2
65757;SDS011;52495;52.208;5.158;2023-03-01T00:01:17;15.48;;;10.98;;
65757;SDS011;52495;52.208;5.158;2023-03-01T00:03:47;18.45;;;11.63;;
65757;SDS011;52495;52.208;5.158;2023-03-01T00:06:14;16.15;;;11.55;;
65757;SDS011;52495;52.208;5.158;2023-03-01T00:08:41;17.88;;;12.07;;
65757;SDS011;52495;52.208;5.158;2023-03-01T00:11:17;15.60;;;11.02;;
65757;SDS011;52495;52.208;5.158;2023-03-01T00:13:45;16.20;;;11.02;;
65757;SDS011;52495;52.208;5.158;2023-03-01T00:16:14;15.70;;;11.48;;
65757;SDS011;52495;52.208;5.158;2023-03-01T00:18:43;18.10;;;11.98;;
65757;SDS011;52495;52.208;5.158;2023-03-01T00:21:11;23.23;;;13.02;;
65757;SDS011;52495;52.208;5.158;2023-03-01T00:23:38;19.77;;;12.60;;
65757;SDS011;52495;52.208;5.158;2023-03-01T00:26:06;17.75;;;12.70;;
65757;SDS011;52495;52.208;5.158;2023-03-01T00:28:36;20.17;;;12.75;;
65757;SDS011;52495;52.208;5.158;2023-03-01T00:31:05;17.30;;;11.90;;
65757;SDS011;52495;52.208;5.158;2023-03-01T00:33:33;20.90;;;12.60;;
65757;SDS011;52495;52.208;5.158;2023-03-01T00:36:00;19.42;;;11.98;;
65757;SDS011;52495;52.208;5.158;2023-03-01T00:38:27;16.95;;;11.05;;
65757;SDS011;52495;52.208;5.158;2023-03-01T00:40:54;16.42;;;11.52;;
65757;SDS011;52495;52.208;5.158;2023-03-01T00:43:21;14.88;;;11.05;;
65757;SDS011;52495;52.208;5.158;2023-03-01T00:45:49;18.83;;;11.63;;
65757;SDS011;52495;52.208;5.158;2023-03-01T00:48:16;19.80;;;11.85;;
65757;SDS011;52495;52.208;5.158;2023-03-01T00:50:43;17.23;;;11.85;;
65757;SDS011;52495;52.208;5.158;2023-03-01T00:53:09;18.17;;;11.60;;
65757;SDS011;52495;52.208;5.158;2023-03-01T00:55:36;16.67;;;11.52;;
65757;SDS011;52495;52.208;5.158;2023-03-01T00:58:04;17.00;;;11.75;;
65757;SDS011;52495;52.208;5.158;2023-03-01T01:00:31;18.95;;;11.75;;
65757;SDS011;52495;52.208;5.158;2023-03-01T01:03:00;17.73;;;12.10;;
65757;SDS011;52495;52.208;5.158;2023-03-01T01:05:27;21.52;;;12.68;;
65757;SDS011;52495;52.208;5.158;2023-03-01T01:07:53;15.82;;;10.82;;
65757;SDS011;52495;52.208;5.158;2023-03-01T01:10:23;15.23;;;11.55;;
65757;SDS011;52495;52.208;5.158;2023-03-01T01:12:50;19.15;;;12.45;;
65757;SDS011;52495;52.208;5.158;2023-03-01T01:15:17;19.27;;;12.20;;
65757;SDS011;52495;52.208;5.158;2023-03-01T01:17:44;17.05;;;11.70;;
65757;SDS011;52495;52.208;5.158;2023-03-01T01:20:12;16.98;;;11.90;;
65757;SDS011;52495;52.208;5.158;2023-03-01T01:22:39;16.73;;;11.38;;
65757;SDS011;52495;52.208;5.158;2023-03-01T01:25:07;16.88;;;12.10;;
65757;SDS011;52495;52.208;5.158;2023-03-01T01:27:34;17.48;;;12.30;;
65757;SDS011;52495;52.208;5.158;2023-03-01T01:30:01;17.38;;;12.27;;
65757;SDS011;52495;52.208;5.158;2023-03-01T01:32:28;17.52;;;11.02;;
65757;SDS011;52495;52.208;5.158;2023-03-01T01:34:55;16.45;;;10.77;;
65757;SDS011;52495;52.208;5.158;2023-03-01T01:37:23;16.30;;;11.02;;
65757;SDS011;52495;52.208;5.158;2023-03-01T01:39:56;16.30;;;11.90;;
65757;SDS011;52495;52.208;5.158;2023-03-01T01:42:23;18.45;;;11.95;;
65757;SDS011;52495;52.208;5.158;2023-03-01T01:47:52;17.17;;;11.68;;
65757;SDS011;52495;52.208;5.158;2023-03-01T01:50:22;15.18;;;11.75;;
65757;SDS011;52495;52.208;5.158;2023-03-01T01:52:51;18.58;;;12.07;;
65757;SDS011;52495;52.208;5.158;2023-03-01T01:55:21;20.83;;;12.45;;
65757;SDS011;52495;52.208;5.158;2023-03-01T01:57:54;16.50;;;11.50;;
65757;SDS011;52495;52.208;5.158;2023-03-01T02:00:25;17.58;;;11.23;;
65757;SDS011;52495;52.208;5.158;2023-03-01T02:02:55;16.92;;;11.90;;
65757;SDS011;52495;52.208;5.158;2023-03-01T02:05:26;15.45;;;10.98;;
65757;SDS011;52495;52.208;5.158;2023-03-01T02:08:01;18.10;;;12.30;;
65757;SDS011;52495;52.208;5.158;2023-03-01T02:10:28;18.67;;;11.13;;
65757;SDS011;52495;52.208;5.158;2023-03-01T02:12:58;21.40;;;12.00;;
65757;SDS011;52495;52.208;5.158;2023-03-01T02:15:26;16.90;;;12.32;;
65757;SDS011;52495;52.208;5.158;2023-03-01T02:17:57;18.35;;;12.30;;
65757;SDS011;52495;52.208;5.158;2023-03-01T02:20:26;15.25;;;11.98;;
65757;SDS011;52495;52.208;5.158;2023-03-01T02:23:00;16.90;;;11.35;;
65757;SDS011;52495;52.208;5.158;2023-03-01T02:25:31;14.95;;;10.35;;
65757;SDS011;52495;52.208;5.158;2023-03-01T02:28:04;19.63;;;11.45;;
65757;SDS011;52495;52.208;5.158;2023-03-01T02:30:40;16.83;;;11.82;;
65757;SDS011;52495;52.208;5.158;2023-03-01T02:33:28;16.98;;;11.70;;
65757;SDS011;52495;52.208;5.158;2023-03-01T02:35:57;18.35;;;12.32;;
65757;SDS011;52495;52.208;5.158;2023-03-01T02:38:26;19.08;;;12.23;;
65757;SDS011;52495;52.208;5.158;2023-03-01T02:40:57;19.42;;;11.90;;
65757;SDS011;52495;52.208;5.158;2023-03-01T02:43:25;17.55;;;11.80;;
65757;SDS011;52495;52.208;5.158;2023-03-01T02:45:59;18.50;;;12.13;;
65757;SDS011;52495;52.208;5.158;2023-03-01T02:48:38;17.40;;;12.27;;
65757;SDS011;52495;52.208;5.158;2023-03-01T02:51:09;16.10;;;11.65;;
65757;SDS011;52495;52.208;5.158;2023-03-01T02:53:45;19.20;;;12.35;;
65757;SDS011;52495;52.208;5.158;2023-03-01T02:56:21;17.98;;;11.35;;
65757;SDS011;52495;52.208;5.158;2023-03-01T02:58:48;18.90;;;11.52;;
65757;SDS011;52495;52.208;5.158;2023-03-01T03:01:19;19.25;;;12.23;;
65757;SDS011;52495;52.208;5.158;2023-03-01T03:03:46;17.23;;;11.90;;
65757;SDS011;52495;52.208;5.158;2023-03-01T03:06:13;19.00;;;12.25;;
65757;SDS011;52495;52.208;5.158;2023-03-01T03:08:40;15.88;;;10.85;;
65757;SDS011;52495;52.208;5.158;2023-03-01T03:11:08;19.15;;;12.23;;
65757;SDS011;52495;52.208;5.158;2023-03-01T03:13:34;18.80;;;12.32;;
65757;SDS011;52495;52.208;5.158;2023-03-01T03:16:02;17.73;;;11.77;;
65757;SDS011;52495;52.208;5.158;2023-03-01T03:18:31;20.02;;;13.52;;
65757;SDS011;52495;52.208;5.158;2023-03-01T03:20:58;19.63;;;12.73;;
65757;SDS011;52495;52.208;5.158;2023-03-01T03:23:24;17.88;;;12.18;;
65757;SDS011;52495;52.208;5.158;2023-03-01T03:25:51;17.60;;;11.77;;
65757;SDS011;52495;52.208;5.158;2023-03-01T03:28:18;18.70;;;11.80;;
65757;SDS011;52495;52.208;5.158;2023-03-01T03:30:45;19.20;;;12.43;;
65757;SDS011;52495;52.208;5.158;2023-03-01T03:33:13;22.65;;;11.95;;
65757;SDS011;52495;52.208;5.158;2023-03-01T03:35:42;17.83;;;11.75;;
65757;SDS011;52495;52.208;5.158;2023-03-01T03:38:13;15.13;;;10.82;;
65757;SDS011;52495;52.208;5.158;2023-03-01T03:40:45;15.68;;;11.07;;
65757;SDS011;52495;52.208;5.158;2023-03-01T03:43:14;19.90;;;12.35;;
65757;SDS011;52495;52.208;5.158;2023-03-01T03:45:43;18.33;;;12.38;;
65757;SDS011;52495;52.208;5.158;2023-03-01T03:48:11;17.50;;;12.23;;
65757;SDS011;52495;52.208;5.158;2023-03-01T03:50:38;18.23;;;11.88;;
65757;SDS011;52495;52.208;5.158;2023-03-01T03:53:08;18.63;;;12.18;;
65757;SDS011;52495;52.208;5.158;2023-03-01T03:55:37;18.67;;;12.85;;
65757;SDS011;52495;52.208;5.158;2023-03-01T03:58:05;21.20;;;13.13;;
65757;SDS011;52495;52.208;5.158;2023-03-01T04:00:35;16.40;;;12.02;;
65757;SDS011;52495;52.208;5.158;2023-03-01T04:03:03;18.23;;;11.85;;
65757;SDS011;52495;52.208;5.158;2023-03-01T04:05:30;18.27;;;11.98;;
65757;SDS011;52495;52.208;5.158;2023-03-01T04:07:57;16.73;;;12.00;;
65757;SDS011;52495;52.208;5.158;2023-03-01T04:10:34;16.15;;;11.23;;
65757;SDS011;52495;52.208;5.158;2023-03-01T04:13:03;16.27;;;11.30;;
65757;SDS011;52495;52.208;5.158;2023-03-01T04:15:30;16.27;;;11.32;;
65757;SDS011;52495;52.208;5.158;2023-03-01T04:17:59;18.45;;;11.85;;
65757;SDS011;52495;52.208;5.158;2023-03-01T04:20:27;17.45;;;11.55;;
65757;SDS011;52495;52.208;5.158;2023-03-01T04:22:59;14.40;;;9.95;;
65757;SDS011;52495;52.208;5.158;2023-03-01T04:25:38;17.38;;;11.20;;
65757;SDS011;52495;52.208;5.158;2023-03-01T04:28:05;18.25;;;12.50;;
65757;SDS011;52495;52.208;5.158;2023-03-01T04:30:32;19.13;;;12.32;;
65757;SDS011;52495;52.208;5.158;2023-03-01T04:33:01;18.88;;;12.18;;
65757;SDS011;52495;52.208;5.158;2023-03-01T04:35:29;18.13;;;12.18;;
65757;SDS011;52495;52.208;5.158;2023-03-01T04:37:57;16.58;;;11.40;;
65757;SDS011;52495;52.208;5.158;2023-03-01T04:40:24;18.65;;;12.15;;
65757;SDS011;52495;52.208;5.158;2023-03-01T04:42:52;18.38;;;12.57;;
65757;SDS011;52495;52.208;5.158;2023-03-01T04:45:19;19.05;;;11.40;;
65757;SDS011;52495;52.208;5.158;2023-03-01T04:47:46;18.33;;;12.38;;
65757;SDS011;52495;52.208;5.158;2023-03-01T04:50:14;18.10;;;12.85;;
65757;SDS011;52495;52.208;5.158;2023-03-01T04:52:45;18.95;;;11.27;;
65757;SDS011;52495;52.208;5.158;2023-03-01T04:55:13;18.20;;;12.13;;
65757;SDS011;52495;52.208;5.158;2023-03-01T04:57:40;16.65;;;11.63;;
65757;SDS011;52495;52.208;5.158;2023-03-01T05:00:09;18.83;;;12.57;;
65757;SDS011;52495;52.208;5.158;2023-03-01T05:02:46;21.00;;;11.27;;
65757;SDS011;52495;52.208;5.158;2023-03-01T05:05:19;19.83;;;12.10;;
65757;SDS011;52495;52.208;5.158;2023-03-01T05:07:51;20.67;;;12.75;;
65757;SDS011;52495;52.208;5.158;2023-03-01T05:10:19;20.42;;;13.30;;
65757;SDS011;52495;52.208;5.158;2023-03-01T05:12:46;19.13;;;13.15;;
65757;SDS011;52495;52.208;5.158;2023-03-01T05:15:15;22.25;;;12.80;;
65757;SDS011;52495;52.208;5.158;2023-03-01T05:17:42;21.15;;;12.25;;
65757;SDS011;52495;52.208;5.158;2023-03-01T05:20:09;18.35;;;11.85;;
65757;SDS011;52495;52.208;5.158;2023-03-01T05:22:37;20.58;;;11.90;;
65757;SDS011;52495;52.208;5.158;2023-03-01T05:25:04;16.95;;;11.77;;
65757;SDS011;52495;52.208;5.158;2023-03-01T05:27:32;21.77;;;12.25;;
65757;SDS011;52495;52.208;5.158;2023-03-01T05:29:59;16.17;;;10.82;;
65757;SDS011;52495;52.208;5.158;2023-03-01T05:32:41;19.63;;;13.13;;
65757;SDS011;52495;52.208;5.158;2023-03-01T05:35:10;20.95;;;13.95;;
65757;SDS011;52495;52.208;5.158;2023-03-01T05:37:42;22.27;;;13.77;;
65757;SDS011;52495;52.208;5.158;2023-03-01T05:40:10;20.50;;;12.82;;
65757;SDS011;52495;52.208;5.158;2023-03-01T05:42:43;17.17;;;11.95;;
65757;SDS011;52495;52.208;5.158;2023-03-01T05:45:11;18.55;;;12.60;;
65757;SDS011;52495;52.208;5.158;2023-03-01T05:47:41;18.25;;;12.55;;
65757;SDS011;52495;52.208;5.158;2023-03-01T05:50:13;18.80;;;11.73;;
65757;SDS011;52495;52.208;5.158;2023-03-01T05:52:44;18.80;;;11.65;;
65757;SDS011;52495;52.208;5.158;2023-03-01T05:55:12;16.90;;;12.07;;
65757;SDS011;52495;52.208;5.158;2023-03-01T05:57:39;18.50;;;12.38;;
65757;SDS011;52495;52.208;5.158;2023-03-01T06:00:06;20.23;;;12.75;;
65757;SDS011;52495;52.208;5.158;2023-03-01T06:02:37;18.67;;;12.60;;
65757;SDS011;52495;52.208;5.158;2023-03-01T06:05:07;17.02;;;12.30;;
65757;SDS011;52495;52.208;5.158;2023-03-01T06:07:35;19.13;;;12.57;;
65757;SDS011;52495;52.208;5.158;2023-03-01T06:10:02;20.10;;;12.90;;
65757;SDS011;52495;52.208;5.158;2023-03-01T06:12:31;20.98;;;12.93;;
65757;SDS011;52495;52.208;5.158;2023-03-01T06:14:58;22.48;;;12.85;;
65757;SDS011;52495;52.208;5.158;2023-03-01T06:17:26;21.05;;;13.90;;
65757;SDS011;52495;52.208;5.158;2023-03-01T06:19:56;20.75;;;13.52;;
65757;SDS011;52495;52.208;5.158;2023-03-01T06:22:24;18.98;;;13.52;;
65757;SDS011;52495;52.208;5.158;2023-03-01T06:24:51;21.48;;;12.95;;
65757;SDS011;52495;52.208;5.158;2023-03-01T06:27:18;20.52;;;12.88;;
65757;SDS011;52495;52.208;5.158;2023-03-01T06:29:44;18.17;;;12.75;;
65757;SDS011;52495;52.208;5.158;2023-03-01T06:32:11;16.92;;;12.32;;
65757;SDS011;52495;52.208;5.158;2023-03-01T06:34:38;20.80;;;13.25;;
65757;SDS011;52495;52.208;5.158;2023-03-01T06:37:05;20.67;;;13.68;;
65757;SDS011;52495;52.208;5.158;2023-03-01T06:39:34;20.15;;;12.55;;
65757;SDS011;52495;52.208;5.158;2023-03-01T06:42:01;19.90;;;12.52;;
65757;SDS011;52495;52.208;5.158;2023-03-01T06:44:28;20.23;;;12.70;;
65757;SDS011;52495;52.208;5.158;2023-03-01T06:46:55;20.10;;;12.93;;
65757;SDS011;52495;52.208;5.158;2023-03-01T06:49:22;21.05;;;12.65;;
65757;SDS011;52495;52.208;5.158;2023-03-01T06:51:49;20.45;;;12.60;;
65757;SDS011;52495;52.208;5.158;2023-03-01T06:54:15;18.17;;;13.07;;
65757;SDS011;52495;52.208;5.158;2023-03-01T06:56:44;17.88;;;12.82;;
65757;SDS011;52495;52.208;5.158;2023-03-01T06:59:13;19.05;;;12.55;;
65757;SDS011;52495;52.208;5.158;2023-03-01T07:01:40;19.40;;;12.90;;
65757;SDS011;52495;52.208;5.158;2023-03-01T07:04:07;19.27;;;12.63;;
65757;SDS011;52495;52.208;5.158;2023-03-01T07:06:34;18.92;;;12.65;;
65757;SDS011;52495;52.208;5.158;2023-03-01T07:09:01;19.73;;;13.02;;
65757;SDS011;52495;52.208;5.158;2023-03-01T07:11:28;21.27;;;13.93;;
65757;SDS011;52495;52.208;5.158;2023-03-01T07:13:56;24.25;;;14.90;;
65757;SDS011;52495;52.208;5.158;2023-03-01T07:16:25;23.05;;;15.70;;
65757;SDS011;52495;52.208;5.158;2023-03-01T07:18:52;25.60;;;16.48;;
65757;SDS011;52495;52.208;5.158;2023-03-01T07:21:18;22.90;;;14.10;;
65757;SDS011;52495;52.208;5.158;2023-03-01T07:23:46;25.42;;;15.85;;
65757;SDS011;52495;52.208;5.158;2023-03-01T07:26:14;23.02;;;13.88;;
65757;SDS011;52495;52.208;5.158;2023-03-01T07:28:40;23.10;;;14.85;;
65757;SDS011;52495;52.208;5.158;2023-03-01T07:31:09;25.65;;;15.98;;
65757;SDS011;52495;52.208;5.158;2023-03-01T07:33:36;26.15;;;14.68;;
65757;SDS011;52495;52.208;5.158;2023-03-01T07:36:03;30.55;;;18.13;;
65757;SDS011;52495;52.208;5.158;2023-03-01T07:38:31;23.73;;;14.65;;
65757;SDS011;52495;52.208;5.158;2023-03-01T07:40:58;28.27;;;16.23;;
65757;SDS011;52495;52.208;5.158;2023-03-01T07:43:26;33.08;;;17.10;;
65757;SDS011;52495;52.208;5.158;2023-03-01T07:45:53;30.42;;;18.35;;
65757;SDS011;52495;52.208;5.158;2023-03-01T07:48:22;29.48;;;18.67;;
65757;SDS011;52495;52.208;5.158;2023-03-01T07:50:49;33.47;;;18.83;;
65757;SDS011;52495;52.208;5.158;2023-03-01T07:53:16;25.58;;;15.82;;
65757;SDS011;52495;52.208;5.158;2023-03-01T07:55:42;22.92;;;14.80;;
65757;SDS011;52495;52.208;5.158;2023-03-01T07:58:09;23.30;;;13.68;;
65757;SDS011;52495;52.208;5.158;2023-03-01T08:00:36;21.38;;;13.48;;
65757;SDS011;52495;52.208;5.158;2023-03-01T08:03:03;26.33;;;16.08;;
65757;SDS011;52495;52.208;5.158;2023-03-01T08:05:31;25.58;;;15.18;;
65757;SDS011;52495;52.208;5.158;2023-03-01T08:07:58;22.70;;;13.27;;
65757;SDS011;52495;52.208;5.158;2023-03-01T08:10:25;27.17;;;15.43;;
65757;SDS011;52495;52.208;5.158;2023-03-01T08:12:52;27.13;;;15.75;;
65757;SDS011;52495;52.208;5.158;2023-03-01T08:15:19;24.92;;;14.43;;
65757;SDS011;52495;52.208;5.158;2023-03-01T08:17:48;23.98;;;14.95;;
65757;SDS011;52495;52.208;5.158;2023-03-01T08:20:15;27.38;;;15.00;;
65757;SDS011;52495;52.208;5.158;2023-03-01T08:22:44;24.80;;;14.20;;
65757;SDS011;52495;52.208;5.158;2023-03-01T08:25:10;24.85;;;13.63;;
65757;SDS011;52495;52.208;5.158;2023-03-01T08:27:37;18.15;;;11.13;;
65757;SDS011;52495;52.208;5.158;2023-03-01T08:30:04;15.68;;;10.48;;
65757;SDS011;52495;52.208;5.158;2023-03-01T08:32:37;21.73;;;12.13;;
65757;SDS011;52495;52.208;5.158;2023-03-01T08:35:04;16.33;;;9.95;;
65757;SDS011;52495;52.208;5.158;2023-03-01T08:37:32;21.55;;;13.40;;
65757;SDS011;52495;52.208;5.158;2023-03-01T08:40:00;15.85;;;10.18;;
65757;SDS011;52495;52.208;5.158;2023-03-01T08:42:28;20.52;;;12.73;;
65757;SDS011;52495;52.208;5.158;2023-03-01T08:44:55;18.90;;;12.07;;
65757;SDS011;52495;52.208;5.158;2023-03-01T08:47:22;15.05;;;9.35;;
65757;SDS011;52495;52.208;5.158;2023-03-01T08:49:49;15.77;;;9.80;;
65757;SDS011;52495;52.208;5.158;2023-03-01T08:52:16;20.13;;;11.07;;
65757;SDS011;52495;52.208;5.158;2023-03-01T08:54:43;14.25;;;8.43;;
65757;SDS011;52495;52.208;5.158;2023-03-01T08:57:11;14.00;;;8.95;;
65757;SDS011;52495;52.208;5.158;2023-03-01T08:59:38;16.77;;;10.60;;
65757;SDS011;52495;52.208;5.158;2023-03-01T09:02:08;15.60;;;10.07;;
65757;SDS011;52495;52.208;5.158;2023-03-01T09:04:40;14.48;;;9.02;;
65757;SDS011;52495;52.208;5.158;2023-03-01T09:07:07;15.77;;;9.23;;
65757;SDS011;52495;52.208;5.158;2023-03-01T09:09:34;13.23;;;9.27;;
65757;SDS011;52495;52.208;5.158;2023-03-01T09:12:02;13.38;;;8.52;;
65757;SDS011;52495;52.208;5.158;2023-03-01T09:14:31;14.55;;;9.20;;
65757;SDS011;52495;52.208;5.158;2023-03-01T09:16:57;12.43;;;8.38;;
65757;SDS011;52495;52.208;5.158;2023-03-01T09:19:28;13.57;;;7.38;;
65757;SDS011;52495;52.208;5.158;2023-03-01T09:21:55;10.40;;;7.22;;
65757;SDS011;52495;52.208;5.158;2023-03-01T09:24:23;11.40;;;7.55;;
65757;SDS011;52495;52.208;5.158;2023-03-01T09:26:52;10.60;;;6.93;;
65757;SDS011;52495;52.208;5.158;2023-03-01T09:29:20;9.10;;;6.20;;
65757;SDS011;52495;52.208;5.158;2023-03-01T09:31:48;10.98;;;6.25;;
65757;SDS011;52495;52.208;5.158;2023-03-01T09:34:15;10.43;;;5.75;;
65757;SDS011;52495;52.208;5.158;2023-03-01T09:36:48;14.30;;;8.20;;
65757;SDS011;52495;52.208;5.158;2023-03-01T09:39:15;10.80;;;7.60;;
65757;SDS011;52495;52.208;5.158;2023-03-01T09:41:44;13.35;;;7.13;;
65757;SDS011;52495;52.208;5.158;2023-03-01T09:44:16;12.38;;;7.43;;
65757;SDS011;52495;52.208;5.158;2023-03-01T09:46:51;14.23;;;8.68;;
65757;SDS011;52495;52.208;5.158;2023-03-01T09:49:19;12.30;;;7.28;;
65757;SDS011;52495;52.208;5.158;2023-03-01T09:51:54;11.65;;;7.28;;
65757;SDS011;52495;52.208;5.158;2023-03-01T09:54:23;10.40;;;6.60;;
65757;SDS011;52495;52.208;5.158;2023-03-01T09:56:59;12.07;;;7.68;;
65757;SDS011;52495;52.208;5.158;2023-03-01T09:59:35;9.98;;;6.63;;
65757;SDS011;52495;52.208;5.158;2023-03-01T10:02:19;10.80;;;6.85;;
65757;SDS011;52495;52.208;5.158;2023-03-01T10:04:55;11.75;;;7.07;;
65757;SDS011;52495;52.208;5.158;2023-03-01T10:07:32;11.75;;;7.30;;
65757;SDS011;52495;52.208;5.158;2023-03-01T10:10:14;10.70;;;6.97;;
65757;SDS011;52495;52.208;5.158;2023-03-01T10:12:50;11.93;;;7.07;;
65757;SDS011;52495;52.208;5.158;2023-03-01T10:15:18;12.07;;;7.03;;
65757;SDS011;52495;52.208;5.158;2023-03-01T10:17:54;8.98;;;5.43;;
65757;SDS011;52495;52.208;5.158;2023-03-01T10:20:24;7.97;;;5.05;;
65757;SDS011;52495;52.208;5.158;2023-03-01T10:22:54;8.55;;;5.70;;
65757;SDS011;52495;52.208;5.158;2023-03-01T10:25:23;7.47;;;5.50;;
65757;SDS011;52495;52.208;5.158;2023-03-01T10:28:04;6.97;;;4.65;;
65757;SDS011;52495;52.208;5.158;2023-03-01T10:30:42;7.78;;;5.03;;
65757;SDS011;52495;52.208;5.158;2023-03-01T10:33:13;7.72;;;5.10;;
65757;SDS011;52495;52.208;5.158;2023-03-01T10:35:43;8.05;;;4.35;;
65757;SDS011;52495;52.208;5.158;2023-03-01T10:38:13;9.80;;;5.63;;
65757;SDS011;52495;52.208;5.158;2023-03-01T10:40:51;7.97;;;4.75;;
65757;SDS011;52495;52.208;5.158;2023-03-01T10:43:22;7.15;;;4.20;;
65757;SDS011;52495;52.208;5.158;2023-03-01T10:45:50;8.13;;;4.35;;
65757;SDS011;52495;52.208;5.158;2023-03-01T10:48:19;10.23;;;5.70;;
65757;SDS011;52495;52.208;5.158;2023-03-01T10:50:50;8.77;;;4.75;;
65757;SDS011;52495;52.208;5.158;2023-03-01T10:53:31;6.65;;;4.60;;
65757;SDS011;52495;52.208;5.158;2023-03-01T10:56:01;6.68;;;4.45;;
65757;SDS011;52495;52.208;5.158;2023-03-01T10:58:31;8.85;;;4.88;;
65757;SDS011;52495;52.208;5.158;2023-03-01T11:00:59;11.52;;;5.25;;
65757;SDS011;52495;52.208;5.158;2023-03-01T11:03:29;7.35;;;4.82;;
65757;SDS011;52495;52.208;5.158;2023-03-01T11:05:58;8.18;;;4.65;;
65757;SDS011;52495;52.208;5.158;2023-03-01T11:11:18;7.38;;;4.30;;
65757;SDS011;52495;52.208;5.158;2023-03-01T11:13:55;7.13;;;5.13;;
65757;SDS011;52495;52.208;5.158;2023-03-01T11:16:24;6.65;;;4.47;;
65757;SDS011;52495;52.208;5.158;2023-03-01T11:18:59;7.28;;;4.30;;
65757;SDS011;52495;52.208;5.158;2023-03-01T11:21:42;7.85;;;4.20;;
65757;SDS011;52495;52.208;5.158;2023-03-01T11:24:16;6.32;;;4.05;;
65757;SDS011;52495;52.208;5.158;2023-03-01T11:26:46;6.40;;;4.15;;
65757;SDS011;52495;52.208;5.158;2023-03-01T11:29:21;8.50;;;4.80;;
65757;SDS011;52495;52.208;5.158;2023-03-01T11:31:54;6.80;;;4.00;;
65757;SDS011;52495;52.208;5.158;2023-03-01T11:34:31;6.90;;;3.90;;
65757;SDS011;52495;52.208;5.158;2023-03-01T11:37:11;9.50;;;4.63;;
65757;SDS011;52495;52.208;5.158;2023-03-01T11:39:52;6.22;;;4.35;;
65757;SDS011;52495;52.208;5.158;2023-03-01T11:42:28;8.75;;;4.13;;
65757;SDS011;52495;52.208;5.158;2023-03-01T11:45:09;5.95;;;4.03;;
65757;SDS011;52495;52.208;5.158;2023-03-01T11:47:42;9.20;;;4.35;;
65757;SDS011;52495;52.208;5.158;2023-03-01T11:50:27;8.60;;;4.68;;
65757;SDS011;52495;52.208;5.158;2023-03-01T11:53:07;5.50;;;4.00;;
65757;SDS011;52495;52.208;5.158;2023-03-01T11:55:50;7.65;;;5.10;;
65757;SDS011;52495;52.208;5.158;2023-03-01T11:58:38;7.25;;;4.70;;
65757;SDS011;52495;52.208;5.158;2023-03-01T12:01:22;8.73;;;5.10;;
65757;SDS011;52495;52.208;5.158;2023-03-01T12:04:04;7.38;;;3.92;;
65757;SDS011;52495;52.208;5.158;2023-03-01T12:06:56;8.13;;;4.47;;
65757;SDS011;52495;52.208;5.158;2023-03-01T12:09:31;9.35;;;4.38;;
65757;SDS011;52495;52.208;5.158;2023-03-01T12:12:17;8.65;;;4.15;;
65757;SDS011;52495;52.208;5.158;2023-03-01T12:15:07;6.68;;;5.18;;
65757;SDS011;52495;52.208;5.158;2023-03-01T12:17:56;6.30;;;4.10;;
65757;SDS011;52495;52.208;5.158;2023-03-01T12:20:35;7.03;;;4.13;;
65757;SDS011;52495;52.208;5.158;2023-03-01T12:26:10;7.45;;;4.10;;
65757;SDS011;52495;52.208;5.158;2023-03-01T12:29:01;8.48;;;4.82;;
65757;SDS011;52495;52.208;5.158;2023-03-01T12:31:47;9.27;;;4.18;;
65757;SDS011;52495;52.208;5.158;2023-03-01T12:34:33;11.30;;;5.72;;
65757;SDS011;52495;52.208;5.158;2023-03-01T12:37:16;7.95;;;4.80;;
65757;SDS011;52495;52.208;5.158;2023-03-01T12:39:58;7.47;;;4.35;;
65757;SDS011;52495;52.208;5.158;2023-03-01T12:42:34;6.57;;;3.97;;
65757;SDS011;52495;52.208;5.158;2023-03-01T12:45:19;8.23;;;4.65;;
65757;SDS011;52495;52.208;5.158;2023-03-01T12:48:04;6.13;;;4.18;;
65757;SDS011;52495;52.208;5.158;2023-03-01T12:50:51;7.45;;;4.50;;
65757;SDS011;52495;52.208;5.158;2023-03-01T12:53:22;7.67;;;4.53;;
65757;SDS011;52495;52.208;5.158;2023-03-01T12:55:52;11.20;;;5.07;;
65757;SDS011;52495;52.208;5.158;2023-03-01T12:58:27;6.10;;;4.10;;
65757;SDS011;52495;52.208;5.158;2023-03-01T13:01:03;6.63;;;3.80;;
65757;SDS011;52495;52.208;5.158;2023-03-01T13:03:48;5.53;;;3.80;;
65757;SDS011;52495;52.208;5.158;2023-03-01T13:06:32;7.63;;;4.40;;
65757;SDS011;52495;52.208;5.158;2023-03-01T13:09:08;8.00;;;4.70;;
65757;SDS011;52495;52.208;5.158;2023-03-01T13:11:43;6.28;;;3.70;;
65757;SDS011;52495;52.208;5.158;2023-03-01T13:17:02;5.80;;;3.93;;
65757;SDS011;52495;52.208;5.158;2023-03-01T13:19:29;5.75;;;3.80;;
65757;SDS011;52495;52.208;5.158;2023-03-01T13:22:01;8.85;;;3.75;;
65757;SDS011;52495;52.208;5.158;2023-03-01T13:25:10;7.07;;;3.92;;
65757;SDS011;52495;52.208;5.158;2023-03-01T13:27:41;7.28;;;4.15;;
65757;SDS011;52495;52.208;5.158;2023-03-01T13:39:29;6.72;;;4.10;;
65757;SDS011;52495;52.208;5.158;2023-03-01T13:41:58;7.70;;;4.00;;
65757;SDS011;52495;52.208;5.158;2023-03-01T13:44:29;6.75;;;3.28;;
65757;SDS011;52495;52.208;5.158;2023-03-01T13:46:59;7.85;;;4.15;;
65757;SDS011;52495;52.208;5.158;2023-03-01T13:49:35;7.82;;;3.40;;
65757;SDS011;52495;52.208;5.158;2023-03-01T13:52:15;4.95;;;2.80;;
65757;SDS011;52495;52.208;5.158;2023-03-01T13:55:03;4.95;;;3.25;;
65757;SDS011;52495;52.208;5.158;2023-03-01T13:57:33;6.60;;;3.92;;
65757;SDS011;52495;52.208;5.158;2023-03-01T14:00:06;8.05;;;4.13;;
65757;SDS011;52495;52.208;5.158;2023-03-01T14:03:01;7.35;;;4.40;;
65757;SDS011;52495;52.208;5.158;2023-03-01T14:05:35;6.97;;;4.22;;
65757;SDS011;52495;52.208;5.158;2023-03-01T14:08:02;5.97;;;3.83;;
65757;SDS011;52495;52.208;5.158;2023-03-01T14:10:31;6.47;;;4.63;;
65757;SDS011;52495;52.208;5.158;2023-03-01T14:13:17;6.78;;;4.25;;
65757;SDS011;52495;52.208;5.158;2023-03-01T14:16:02;5.18;;;3.38;;
65757;SDS011;52495;52.208;5.158;2023-03-01T14:18:47;6.07;;;3.58;;
65757;SDS011;52495;52.208;5.158;2023-03-01T14:21:21;5.53;;;3.60;;
65757;SDS011;52495;52.208;5.158;2023-03-01T14:23:50;11.20;;;4.57;;
65757;SDS011;52495;52.208;5.158;2023-03-01T14:26:19;7.22;;;3.95;;
65757;SDS011;52495;52.208;5.158;2023-03-01T14:28:47;7.80;;;4.13;;
65757;SDS011;52495;52.208;5.158;2023-03-01T14:34:18;6.07;;;3.47;;
65757;SDS011;52495;52.208;5.158;2023-03-01T14:36:46;7.78;;;3.70;;
65757;SDS011;52495;52.208;5.158;2023-03-01T14:39:17;7.35;;;3.75;;
65757;SDS011;52495;52.208;5.158;2023-03-01T14:41:46;8.07;;;4.13;;
65757;SDS011;52495;52.208;5.158;2023-03-01T14:44:15;5.15;;;3.13;;
65757;SDS011;52495;52.208;5.158;2023-03-01T14:46:51;6.40;;;3.55;;
65757;SDS011;52495;52.208;5.158;2023-03-01T14:49:20;6.95;;;4.20;;
65757;SDS011;52495;52.208;5.158;2023-03-01T14:51:51;5.30;;;3.13;;
65757;SDS011;52495;52.208;5.158;2023-03-01T14:54:26;5.65;;;3.28;;
65757;SDS011;52495;52.208;5.158;2023-03-01T14:56:59;7.25;;;4.30;;
65757;SDS011;52495;52.208;5.158;2023-03-01T14:59:27;6.57;;;4.40;;
65757;SDS011;52495;52.208;5.158;2023-03-01T15:01:56;6.85;;;4.30;;
65757;SDS011;52495;52.208;5.158;2023-03-01T15:04:24;5.85;;;3.42;;
65757;SDS011;52495;52.208;5.158;2023-03-01T15:06:52;5.18;;;3.60;;
65757;SDS011;52495;52.208;5.158;2023-03-01T15:09:20;8.07;;;4.07;;
65757;SDS011;52495;52.208;5.158;2023-03-01T15:11:51;5.32;;;3.58;;
65757;SDS011;52495;52.208;5.158;2023-03-01T15:14:28;7.05;;;4.30;;
65757;SDS011;52495;52.208;5.158;2023-03-01T15:17:14;6.85;;;4.10;;